createdAt,value
2019-06-08T00:00:41.022Z,15.10
2019-06-08T00:03:07.037Z,15.10
2019-06-08T00:05:33.040Z,15.10
2019-06-08T00:07:59.056Z,15.10
2019-06-08T00:10:25.818Z,15.10
2019-06-08T00:12:51.121Z,15.10
2019-06-08T00:15:18.551Z,15.10
2019-06-08T00:17:43.114Z,15.00
2019-06-08T00:20:09.092Z,15.10
2019-06-08T00:22:35.097Z,15.00
2019-06-08T00:25:01.198Z,15.00
2019-06-08T00:27:27.909Z,15.00
2019-06-08T00:29:54.644Z,15.00
2019-06-08T00:32:20.604Z,15.00
2019-06-08T00:34:46.592Z,15.00
2019-06-08T00:37:12.583Z,14.90
2019-06-08T00:39:38.604Z,14.90
2019-06-08T00:42:04.555Z,14.80
2019-06-08T00:44:30.541Z,14.90
2019-06-08T00:46:57.270Z,14.90
2019-06-08T00:49:23.283Z,14.90
2019-06-08T00:51:49.287Z,14.90
2019-06-08T00:54:17.272Z,14.90
2019-06-08T00:56:42.077Z,14.90
2019-06-08T00:59:08.125Z,14.90
2019-06-08T01:01:34.101Z,14.90
2019-06-08T01:04:00.124Z,14.90
2019-06-08T01:06:27.495Z,15.00
2019-06-08T01:08:53.775Z,15.00
2019-06-08T01:11:20.920Z,14.90
2019-06-08T01:13:45.789Z,14.90
2019-06-08T01:16:11.804Z,14.90
2019-06-08T01:18:37.756Z,14.80
2019-06-08T01:21:03.768Z,14.90
2019-06-08T01:23:29.879Z,14.80
2019-06-08T01:25:55.840Z,14.80
2019-06-08T01:28:22.121Z,14.90
2019-06-08T01:30:47.853Z,14.90
2019-06-08T01:33:13.854Z,15.00
2019-06-08T01:35:39.907Z,15.10
2019-06-08T01:38:05.916Z,15.10
2019-06-08T01:40:31.921Z,15.20
2019-06-08T01:42:58.646Z,15.20
2019-06-08T01:45:25.668Z,15.20
2019-06-08T01:47:50.700Z,15.30
2019-06-08T01:50:16.715Z,15.40
2019-06-08T01:52:42.685Z,15.40
2019-06-08T01:55:08.675Z,15.40
2019-06-08T01:57:35.418Z,15.40
2019-06-08T02:00:28.741Z,15.40
2019-06-08T02:02:29.966Z,15.40
2019-06-08T02:04:55.072Z,15.40
2019-06-08T02:07:21.079Z,15.40
2019-06-08T02:09:47.189Z,15.40
2019-06-08T02:12:13.887Z,15.40
2019-06-08T02:14:39.837Z,15.40
2019-06-08T02:17:06.458Z,15.40
2019-06-08T02:19:32.686Z,15.30
2019-06-08T02:21:58.491Z,15.30
2019-06-08T02:24:24.459Z,15.30
2019-06-08T02:26:50.445Z,15.40
2019-06-08T02:29:17.204Z,15.40
2019-06-08T02:31:47.872Z,15.40
2019-06-08T02:34:10.013Z,15.40
2019-06-08T02:36:37.913Z,15.40
2019-06-08T02:39:02.817Z,15.50
2019-06-08T02:41:29.029Z,15.40
2019-06-08T02:43:54.833Z,15.50
2019-06-08T02:46:20.852Z,15.50
2019-06-08T02:49:03.323Z,15.50
2019-06-08T02:51:13.625Z,15.60
2019-06-08T02:53:41.417Z,15.60
2019-06-08T02:56:05.643Z,15.60
2019-06-08T02:58:33.388Z,15.60
2019-06-08T03:00:57.669Z,15.60
2019-06-08T03:03:24.391Z,15.60
2019-06-08T03:05:50.394Z,15.60
2019-06-08T03:08:16.392Z,15.70
2019-06-08T03:10:42.374Z,15.70
2019-06-08T03:13:09.106Z,15.70
2019-06-08T03:15:37.091Z,15.70
2019-06-08T03:18:01.894Z,15.70
2019-06-08T03:20:28.620Z,15.70
2019-06-08T03:22:54.642Z,15.70
2019-06-08T03:25:21.374Z,15.70
2019-06-08T03:27:47.386Z,15.70
2019-06-08T03:30:19.054Z,15.70
2019-06-08T03:32:47.152Z,15.80
2019-06-08T03:35:05.450Z,15.80
2019-06-08T03:37:31.469Z,15.80
2019-06-08T03:39:57.451Z,15.80
2019-06-08T03:42:23.457Z,15.80
2019-06-08T03:44:50.209Z,15.80
2019-06-08T03:47:16.254Z,15.80
2019-06-08T03:49:52.276Z,15.80
2019-06-08T03:52:08.279Z,15.80
2019-06-08T03:54:35.920Z,15.80
2019-06-08T03:57:01.198Z,15.80
2019-06-08T03:59:27.199Z,15.80
2019-06-08T04:01:53.210Z,15.80
2019-06-08T04:04:19.210Z,15.80
2019-06-08T04:06:45.959Z,15.80
2019-06-08T04:09:11.946Z,15.80
2019-06-08T04:11:39.926Z,15.80
2019-06-08T04:14:04.006Z,15.80
2019-06-08T04:16:29.995Z,15.80
2019-06-08T04:18:56.004Z,15.60
2019-06-08T04:21:21.992Z,15.70
2019-06-08T04:23:48.042Z,15.80
2019-06-08T04:26:14.019Z,15.80
2019-06-08T04:28:40.518Z,15.80
2019-06-08T04:31:06.109Z,15.90
2019-06-08T04:33:32.118Z,15.90
2019-06-08T04:35:58.848Z,15.80
2019-06-08T04:38:24.864Z,15.80
2019-06-08T04:40:50.861Z,15.80
2019-06-08T04:43:16.902Z,15.90
2019-06-08T04:45:43.585Z,15.90
2019-06-08T04:48:09.823Z,15.90
2019-06-08T04:50:35.724Z,15.90
2019-06-08T04:53:02.475Z,15.90
2019-06-08T04:55:28.466Z,15.90
2019-06-08T04:57:54.475Z,15.90
2019-06-08T05:00:20.458Z,15.90
2019-06-08T05:02:48.892Z,15.90
2019-06-08T05:05:12.516Z,15.90
2019-06-08T05:07:39.197Z,15.90
2019-06-08T05:10:04.550Z,15.90
2019-06-08T05:12:30.570Z,16.00
2019-06-08T05:14:56.581Z,16.10
2019-06-08T05:17:22.593Z,16.10
2019-06-08T05:19:50.569Z,16.10
2019-06-08T05:22:15.401Z,16.10
2019-06-08T05:24:41.438Z,16.10
2019-06-08T05:27:07.414Z,16.10
2019-06-08T05:29:34.167Z,16.10
2019-06-08T05:32:00.154Z,16.00
2019-06-08T05:34:26.194Z,16.00
2019-06-08T05:36:52.204Z,16.00
2019-06-08T05:39:18.216Z,16.00
2019-06-08T05:41:44.198Z,16.10
2019-06-08T05:44:10.266Z,16.10
2019-06-08T05:46:36.249Z,16.00
2019-06-08T05:49:03.031Z,16.20
2019-06-08T05:51:29.025Z,16.20
2019-06-08T05:53:55.042Z,16.40
2019-06-08T05:56:21.022Z,16.50
2019-06-08T05:58:48.142Z,16.30
2019-06-08T06:01:13.829Z,16.30
2019-06-08T06:03:40.342Z,16.30
2019-06-08T06:06:05.860Z,16.20
2019-06-08T06:08:31.879Z,16.10
2019-06-08T06:10:58.582Z,16.30
2019-06-08T06:13:24.624Z,16.30
2019-06-08T06:15:51.795Z,16.90
2019-06-08T06:18:17.449Z,16.90
2019-06-08T06:20:43.458Z,17.00
2019-06-08T06:23:09.420Z,16.90
2019-06-08T06:25:35.426Z,16.80
2019-06-08T06:28:01.447Z,16.80
2019-06-08T06:30:27.499Z,16.90
2019-06-08T06:32:53.491Z,17.00
2019-06-08T06:35:19.475Z,17.20
2019-06-08T06:37:45.918Z,17.40
2019-06-08T06:40:11.557Z,17.40
2019-06-08T06:42:37.531Z,17.30
2019-06-08T06:45:04.287Z,16.90
2019-06-08T06:47:31.006Z,16.70
2019-06-08T06:49:57.047Z,16.70
2019-06-08T06:52:23.040Z,16.40
2019-06-08T06:54:49.050Z,16.30
2019-06-08T06:57:15.039Z,16.20
2019-06-08T06:59:41.042Z,16.20
2019-06-08T07:02:07.748Z,16.30
2019-06-08T07:04:33.771Z,16.30
2019-06-08T07:06:59.765Z,16.40
2019-06-08T07:09:25.765Z,16.60
2019-06-08T07:11:52.993Z,17.10
2019-06-08T07:14:18.648Z,17.10
2019-06-08T07:16:45.737Z,17.20
2019-06-08T07:19:10.663Z,17.30
2019-06-08T07:21:41.755Z,17.20
2019-06-08T07:24:03.460Z,17.20
2019-06-08T07:26:29.509Z,17.50
2019-06-08T07:28:55.504Z,17.40
2019-06-08T07:31:21.497Z,17.00
2019-06-08T07:33:49.768Z,16.60
2019-06-08T07:36:14.365Z,16.60
2019-06-08T07:38:41.104Z,16.70
2019-06-08T07:41:07.863Z,17.00
2019-06-08T07:43:33.871Z,17.00
2019-06-08T07:46:00.622Z,16.90
2019-06-08T07:48:26.658Z,16.90
2019-06-08T07:50:52.687Z,16.70
2019-06-08T07:53:18.688Z,16.50
2019-06-08T07:55:45.626Z,16.10
2019-06-08T07:58:11.543Z,16.00
2019-06-08T08:00:38.306Z,15.90
2019-06-08T08:03:04.324Z,15.90
2019-06-08T08:05:30.367Z,15.80
2019-06-08T08:07:56.879Z,15.80
2019-06-08T08:10:22.426Z,15.80
2019-06-08T08:12:49.253Z,15.80
2019-06-08T08:15:15.252Z,16.10
2019-06-08T08:17:41.264Z,16.10
2019-06-08T08:20:08.026Z,16.10
2019-06-08T08:22:34.772Z,16.10
2019-06-08T08:25:04.638Z,16.10
2019-06-08T08:27:28.076Z,15.90
2019-06-08T08:29:53.281Z,15.80
2019-06-08T08:32:18.999Z,15.80
2019-06-08T08:34:45.030Z,15.90
2019-06-08T08:37:11.058Z,16.00
2019-06-08T08:39:37.710Z,16.10
2019-06-08T08:42:05.276Z,16.20
2019-06-08T08:44:29.152Z,16.10
2019-06-08T08:46:56.209Z,16.00
2019-06-08T08:49:21.768Z,15.60
2019-06-08T08:51:47.823Z,15.50
2019-06-08T08:54:13.889Z,15.40
2019-06-08T08:56:39.936Z,15.40
2019-06-08T08:59:07.842Z,15.40
2019-06-08T09:01:31.993Z,15.60
2019-06-08T09:04:03.004Z,15.70
2019-06-08T09:06:24.083Z,15.80
2019-06-08T09:08:52.005Z,15.60
2019-06-08T09:11:17.589Z,15.70
2019-06-08T09:13:42.313Z,15.50
2019-06-08T09:16:08.430Z,15.40
2019-06-08T09:18:37.362Z,15.30
2019-06-08T09:21:02.878Z,15.30
2019-06-08T09:23:28.126Z,15.20
2019-06-08T09:25:56.734Z,15.20
2019-06-08T09:28:19.844Z,15.10
2019-06-08T09:30:48.246Z,15.20
2019-06-08T09:33:11.889Z,15.30
2019-06-08T09:35:38.016Z,15.30
2019-06-08T09:38:05.047Z,15.40
2019-06-08T09:40:32.616Z,15.50
2019-06-08T09:43:04.103Z,15.50
2019-06-08T09:45:22.192Z,15.50
2019-06-08T09:47:48.240Z,15.50
2019-06-08T09:50:14.993Z,15.50
2019-06-08T09:52:41.809Z,15.40
2019-06-08T09:55:09.211Z,15.30
2019-06-08T09:57:33.878Z,15.30
2019-06-08T10:00:02.951Z,15.60
2019-06-08T10:02:28.357Z,15.90
2019-06-08T10:04:54.179Z,15.90
2019-06-08T10:07:20.358Z,16.20
2019-06-08T10:09:47.373Z,16.20
2019-06-08T10:12:13.211Z,16.00
2019-06-08T10:14:39.977Z,16.10
2019-06-08T10:17:06.708Z,16.10
2019-06-08T10:19:32.080Z,16.10
2019-06-08T10:21:58.859Z,16.10
2019-06-08T10:24:24.210Z,16.10
2019-06-08T10:26:50.205Z,16.10
2019-06-08T10:29:18.268Z,16.00
2019-06-08T10:31:43.777Z,15.90
2019-06-08T10:34:11.190Z,15.90
2019-06-08T10:36:35.227Z,16.00
2019-06-08T10:39:03.881Z,16.20
2019-06-08T10:41:27.812Z,16.20
2019-06-08T10:43:53.430Z,16.10
2019-06-08T10:46:20.877Z,16.00
2019-06-08T10:48:48.406Z,16.00
2019-06-08T10:51:13.061Z,15.90
2019-06-08T10:53:46.586Z,15.70
2019-06-08T10:56:05.611Z,15.60
2019-06-08T10:58:29.861Z,15.60
2019-06-08T11:00:57.844Z,15.60
2019-06-08T11:03:21.929Z,15.70
2019-06-08T11:05:48.380Z,15.70
2019-06-08T11:08:14.686Z,15.80
2019-06-08T11:10:40.123Z,15.90
2019-06-08T11:13:13.254Z,16.00
2019-06-08T11:15:33.010Z,16.00
2019-06-08T11:18:02.237Z,15.80
2019-06-08T11:20:27.592Z,15.90
2019-06-08T11:22:51.897Z,15.80
2019-06-08T11:25:19.935Z,15.90
2019-06-08T11:27:44.727Z,15.90
2019-06-08T11:30:20.473Z,15.90
2019-06-08T11:32:38.341Z,15.90
2019-06-08T11:35:04.097Z,16.00
2019-06-08T11:37:29.777Z,16.00
2019-06-08T11:39:57.652Z,16.30
2019-06-08T11:42:25.476Z,16.30
2019-06-08T11:44:51.228Z,16.60
2019-06-08T11:47:14.802Z,16.80
2019-06-08T11:49:41.578Z,16.90
2019-06-08T11:52:08.971Z,16.90
2019-06-08T11:54:38.109Z,17.00
2019-06-08T11:57:00.803Z,16.90
2019-06-08T11:59:28.501Z,17.00
2019-06-08T12:01:53.345Z,17.00
2019-06-08T12:04:19.345Z,17.20
2019-06-08T12:06:48.276Z,17.70
2019-06-08T12:09:14.099Z,17.70
2019-06-08T12:11:38.968Z,17.60
2019-06-08T12:14:05.013Z,17.60
2019-06-08T12:16:31.053Z,17.60
2019-06-08T12:18:58.626Z,17.70
2019-06-08T12:21:23.158Z,17.70
2019-06-08T12:23:49.157Z,17.80
2019-06-08T12:26:15.925Z,17.30
2019-06-08T12:28:41.941Z,17.30
2019-06-08T12:31:13.237Z,17.30
2019-06-08T12:33:34.032Z,17.30
2019-06-08T12:36:00.075Z,17.80
2019-06-08T12:38:30.000Z,18.20
2019-06-08T12:40:52.194Z,18.50
2019-06-08T12:43:19.818Z,18.60
2019-06-08T12:45:44.354Z,18.30
2019-06-08T12:48:15.749Z,18.00
2019-06-08T12:50:38.656Z,17.80
2019-06-08T12:53:03.258Z,17.80
2019-06-08T12:55:29.296Z,18.00
2019-06-08T12:57:58.001Z,18.20
2019-06-08T13:00:21.570Z,18.40
2019-06-08T13:02:50.706Z,18.80
2019-06-08T13:05:16.673Z,18.80
2019-06-08T13:07:40.408Z,18.90
2019-06-08T13:10:06.444Z,18.90
2019-06-08T13:12:32.480Z,19.10
2019-06-08T13:14:58.500Z,19.20
2019-06-08T13:17:24.556Z,19.40
2019-06-08T13:19:50.554Z,19.20
2019-06-08T13:22:19.310Z,19.10
2019-06-08T13:24:42.637Z,18.90
2019-06-08T13:27:13.015Z,18.80
2019-06-08T13:29:35.520Z,18.50
2019-06-08T13:32:01.692Z,18.50
2019-06-08T13:34:28.429Z,18.50
2019-06-08T13:36:53.717Z,18.10
2019-06-08T13:39:22.506Z,18.00
2019-06-08T13:41:48.101Z,18.10
2019-06-08T13:44:11.886Z,18.20
2019-06-08T13:46:37.999Z,18.30
2019-06-08T13:49:04.008Z,18.40
2019-06-08T13:51:30.007Z,18.60
2019-06-08T13:53:58.084Z,18.70
2019-06-08T13:56:23.986Z,18.70
2019-06-08T13:58:49.668Z,18.20
2019-06-08T14:01:15.645Z,18.20
2019-06-08T14:03:42.424Z,18.00
2019-06-08T14:06:08.419Z,18.00
2019-06-08T14:08:34.439Z,18.00
2019-06-08T14:11:00.929Z,18.10
2019-06-08T14:13:33.311Z,18.10
2019-06-08T14:15:52.704Z,18.10
2019-06-08T14:18:25.839Z,17.90
2019-06-08T14:20:44.792Z,18.00
2019-06-08T14:23:10.811Z,18.20
2019-06-08T14:25:47.830Z,18.30
2019-06-08T14:28:02.895Z,18.30
2019-06-08T14:30:33.075Z,18.20
2019-06-08T14:32:57.782Z,18.30
2019-06-08T14:35:23.821Z,18.30
2019-06-08T14:37:49.225Z,18.40
2019-06-08T14:40:15.233Z,18.40
2019-06-08T14:42:41.311Z,18.50
2019-06-08T14:45:08.243Z,18.60
2019-06-08T14:47:33.403Z,18.50
2019-06-08T14:50:01.888Z,18.20
2019-06-08T14:52:28.095Z,18.10
2019-06-08T14:54:52.296Z,18.20
2019-06-08T14:57:19.485Z,18.20
2019-06-08T14:59:44.414Z,18.20
2019-06-08T15:02:11.177Z,17.90
2019-06-08T15:04:39.886Z,17.90
2019-06-08T15:07:03.256Z,17.50
2019-06-08T15:09:29.840Z,17.00
2019-06-08T15:11:55.305Z,16.20
2019-06-08T15:14:21.632Z,15.80
2019-06-08T15:16:49.365Z,15.30
2019-06-08T15:19:13.545Z,15.00
2019-06-08T15:21:39.684Z,14.70
2019-06-08T15:24:08.060Z,14.50
2019-06-08T15:26:39.854Z,14.50
2019-06-08T15:28:58.801Z,14.80
2019-06-08T15:31:25.203Z,15.10
2019-06-08T15:33:51.447Z,15.50
2019-06-08T15:36:20.310Z,15.50
2019-06-08T15:38:43.535Z,15.50
2019-06-08T15:41:09.575Z,15.50
2019-06-08T15:43:37.670Z,15.50
2019-06-08T15:46:01.656Z,15.30
2019-06-08T15:48:29.400Z,14.90
2019-06-08T15:50:54.481Z,14.60
2019-06-08T15:53:20.509Z,14.60
2019-06-08T15:55:51.283Z,14.30
2019-06-08T15:58:13.346Z,14.30
2019-06-08T16:00:39.339Z,14.30
2019-06-08T16:03:05.326Z,14.30
2019-06-08T16:05:31.680Z,14.20
2019-06-08T16:07:57.447Z,14.20
2019-06-08T16:10:23.964Z,14.20
2019-06-08T16:12:50.241Z,14.00
2019-06-08T16:15:17.016Z,14.00
2019-06-08T16:17:43.040Z,14.00
2019-06-08T16:20:09.035Z,14.10
2019-06-08T16:22:35.971Z,14.10
2019-06-08T16:25:01.141Z,14.30
2019-06-08T16:27:27.644Z,14.40
2019-06-08T16:29:53.250Z,14.60
2019-06-08T16:32:19.266Z,14.70
2019-06-08T16:34:46.038Z,14.80
2019-06-08T16:37:12.055Z,14.80
2019-06-08T16:39:39.001Z,14.80
2019-06-08T16:42:04.163Z,14.80
2019-06-08T16:44:30.189Z,14.80
2019-06-08T16:46:56.934Z,15.00
2019-06-08T16:49:23.844Z,15.10
2019-06-08T16:51:49.954Z,15.10
2019-06-08T16:54:15.991Z,15.30
2019-06-08T16:56:42.017Z,15.40
2019-06-08T16:59:08.055Z,15.50
2019-06-08T17:01:34.768Z,15.60
2019-06-08T17:04:00.129Z,15.60
2019-06-08T17:06:26.913Z,15.60
2019-06-08T17:08:52.909Z,15.60
2019-06-08T17:11:18.958Z,15.70
2019-06-08T17:13:44.971Z,15.60
2019-06-08T17:16:11.021Z,15.50
2019-06-08T17:18:38.160Z,15.40
2019-06-08T17:21:03.182Z,15.40
2019-06-08T17:23:30.635Z,15.50
2019-06-08T17:25:55.323Z,15.50
2019-06-08T17:28:21.327Z,15.50
2019-06-08T17:30:47.348Z,15.50
2019-06-08T17:33:13.344Z,15.70
2019-06-08T17:35:40.157Z,16.00
2019-06-08T17:38:06.177Z,16.00
2019-06-08T17:40:32.210Z,16.10
2019-06-08T17:42:58.949Z,16.10
2019-06-08T17:45:24.971Z,16.10
2019-06-08T17:47:50.964Z,16.10
2019-06-08T17:50:17.210Z,16.10
2019-06-08T17:52:43.134Z,16.00
2019-06-08T17:55:09.858Z,15.60
2019-06-08T17:57:44.814Z,15.60
2019-06-08T18:00:03.399Z,15.40
2019-06-08T18:02:31.303Z,15.30
2019-06-08T18:04:54.860Z,15.30
2019-06-08T18:07:20.850Z,15.30
2019-06-08T18:09:48.450Z,15.30
2019-06-08T18:12:13.624Z,15.30
2019-06-08T18:14:41.961Z,15.30
2019-06-08T18:17:07.977Z,15.30
2019-06-08T18:19:32.503Z,15.30
2019-06-08T18:22:04.471Z,15.30
2019-06-08T18:24:24.664Z,15.30
2019-06-08T18:26:51.427Z,15.30
2019-06-08T18:29:18.146Z,15.30
2019-06-08T18:31:44.406Z,15.40
2019-06-08T18:34:09.516Z,15.40
2019-06-08T18:36:38.067Z,15.30
2019-06-08T18:39:02.345Z,15.30
2019-06-08T18:41:28.372Z,15.30
2019-06-08T18:43:55.130Z,15.30
2019-06-08T18:46:21.230Z,15.30
2019-06-08T18:48:49.375Z,15.30
2019-06-08T18:51:14.564Z,15.30
2019-06-08T18:53:59.667Z,15.30
2019-06-08T18:56:08.238Z,15.20
2019-06-08T18:58:33.397Z,15.10
2019-06-08T19:01:00.152Z,15.10
2019-06-08T19:03:27.885Z,15.10
2019-06-08T19:05:52.294Z,15.10
2019-06-08T19:08:20.053Z,15.20
2019-06-08T19:10:48.400Z,15.10
2019-06-08T19:13:12.887Z,15.10
2019-06-08T19:15:42.208Z,15.00
2019-06-08T19:18:04.926Z,15.00
2019-06-08T19:20:30.938Z,15.00
2019-06-08T19:22:57.801Z,15.00
2019-06-08T19:25:22.995Z,15.00
2019-06-08T19:27:53.131Z,15.00
2019-06-08T19:30:15.071Z,15.00
2019-06-08T19:32:42.859Z,14.90
2019-06-08T19:35:07.385Z,14.90
2019-06-08T19:37:34.022Z,14.90
2019-06-08T19:40:00.004Z,14.90
2019-06-08T19:42:36.688Z,14.70
2019-06-08T19:45:01.309Z,14.60
2019-06-08T19:47:19.632Z,14.60
2019-06-08T19:49:48.068Z,14.50
2019-06-08T19:52:11.677Z,14.50
2019-06-08T19:54:38.381Z,14.50
2019-06-08T19:57:03.745Z,14.60
2019-06-08T19:59:29.781Z,14.70
2019-06-08T20:01:57.373Z,14.70
2019-06-08T20:04:21.830Z,14.70
2019-06-08T20:06:50.366Z,14.70
2019-06-08T20:09:13.918Z,14.50
2019-06-08T20:11:44.268Z,14.40
2019-06-08T20:14:08.062Z,14.40
2019-06-08T20:16:32.729Z,14.40
2019-06-08T20:18:58.751Z,14.30
2019-06-08T20:21:24.764Z,14.30
2019-06-08T20:23:51.147Z,14.10
2019-06-08T20:26:17.385Z,14.20
2019-06-08T20:28:44.704Z,14.20
2019-06-08T20:31:10.975Z,14.20
2019-06-08T20:33:38.035Z,14.20
2019-06-08T20:36:04.796Z,14.10
2019-06-08T20:38:37.920Z,14.00
2019-06-08T20:40:58.059Z,14.00
2019-06-08T20:43:23.696Z,14.00
2019-06-08T20:45:51.779Z,14.00
2019-06-08T20:48:18.256Z,14.00
2019-06-08T20:50:42.658Z,14.00
2019-06-08T20:53:08.722Z,14.00
2019-06-08T20:55:39.996Z,14.10
2019-06-08T20:58:00.756Z,14.00
2019-06-08T21:00:27.512Z,14.00
2019-06-08T21:02:54.853Z,14.00
2019-06-08T21:05:20.395Z,13.90
2019-06-08T21:07:49.522Z,13.90
2019-06-08T21:10:12.483Z,13.90
2019-06-08T21:12:38.437Z,13.90
2019-06-08T21:15:07.087Z,13.90
2019-06-08T21:17:32.016Z,13.90
2019-06-08T21:19:58.141Z,13.90
2019-06-08T21:22:24.881Z,13.90
2019-06-08T21:24:53.636Z,13.90
2019-06-08T21:27:17.378Z,13.80
2019-06-08T21:29:49.211Z,13.90
2019-06-08T21:32:09.126Z,13.90
2019-06-08T21:34:35.182Z,13.80
2019-06-08T21:37:01.226Z,13.90
2019-06-08T21:39:28.250Z,13.90
2019-06-08T21:41:56.374Z,13.80
2019-06-08T21:44:19.332Z,13.80
2019-06-08T21:46:47.458Z,13.70
2019-06-08T21:49:11.426Z,13.60
2019-06-08T21:51:37.847Z,13.60
2019-06-08T21:54:03.490Z,13.60
2019-06-08T21:56:37.053Z,13.50
2019-06-08T21:59:02.378Z,13.50
2019-06-08T22:01:28.455Z,13.30
2019-06-08T22:03:54.450Z,13.30
2019-06-08T22:06:21.241Z,13.10
2019-06-08T22:08:48.108Z,13.20
2019-06-08T22:11:13.283Z,13.20
2019-06-08T22:13:39.298Z,13.30
2019-06-08T22:16:07.736Z,13.30
2019-06-08T22:18:32.158Z,13.30
2019-06-08T22:20:59.790Z,13.30
2019-06-08T22:23:24.228Z,13.30
2019-06-08T22:25:51.948Z,13.20
2019-06-08T22:28:17.703Z,13.20
2019-06-08T22:30:43.115Z,13.20
2019-06-08T22:33:08.430Z,13.30
2019-06-08T22:35:34.440Z,13.30
2019-06-08T22:38:00.941Z,13.30
2019-06-08T22:40:28.110Z,13.20
2019-06-08T22:42:52.576Z,13.20
2019-06-08T22:45:19.326Z,13.20
2019-06-08T22:47:47.836Z,13.30
2019-06-08T22:50:12.135Z,13.30
2019-06-08T22:52:38.166Z,13.40
2019-06-08T22:55:07.842Z,13.40
2019-06-08T22:57:31.031Z,13.50
2019-06-08T23:00:00.131Z,13.50
2019-06-08T23:02:23.028Z,13.60
2019-06-08T23:04:49.755Z,13.70
2019-06-08T23:07:26.610Z,13.70
2019-06-08T23:09:41.822Z,13.80
2019-06-08T23:12:09.441Z,13.80
2019-06-08T23:14:34.674Z,13.80
2019-06-08T23:17:02.306Z,13.80
2019-06-08T23:19:26.720Z,13.90
2019-06-08T23:21:52.730Z,13.90
2019-06-08T23:24:18.688Z,13.90
2019-06-08T23:26:44.731Z,13.80
2019-06-08T23:29:10.792Z,13.80
2019-06-08T23:31:38.758Z,13.80
2019-06-08T23:34:05.016Z,13.80
2019-06-08T23:36:47.126Z,13.70
2019-06-08T23:38:56.931Z,13.70
2019-06-08T23:41:21.895Z,13.60
2019-06-08T23:43:48.165Z,13.50
2019-06-08T23:46:13.998Z,13.70
2019-06-08T23:48:40.037Z,13.60
2019-06-08T23:51:09.093Z,13.50
2019-06-08T23:53:32.059Z,13.50
2019-06-08T23:55:59.638Z,13.40
2019-06-08T23:58:24.065Z,13.30
